sensor_id;sensor_type;location;lat;lon;timestamp;P1;durP1;ratioP1;P2;durP2;ratioP2
63110;SDS011;49201;53.426;10.300;2023-04-01T00:01:54;11.10;;;5.57;;
63110;SDS011;49201;53.426;10.300;2023-04-01T00:04:19;8.57;;;5.73;;
63110;SDS011;49201;53.426;10.300;2023-04-01T00:06:45;11.27;;;5.43;;
63110;SDS011;49201;53.426;10.300;2023-04-01T00:09:12;12.43;;;5.23;;
63110;SDS011;49201;53.426;10.300;2023-04-01T00:11:38;10.13;;;5.30;;
63110;SDS011;49201;53.426;10.300;2023-04-01T00:14:05;11.70;;;4.73;;
63110;SDS011;49201;53.426;10.300;2023-04-01T00:16:31;7.37;;;5.07;;
63110;SDS011;49201;53.426;10.300;2023-04-01T00:18:56;10.70;;;5.13;;
63110;SDS011;49201;53.426;10.300;2023-04-01T00:21:22;9.73;;;4.50;;
63110;SDS011;49201;53.426;10.300;2023-04-01T00:23:48;10.27;;;5.37;;
63110;SDS011;49201;53.426;10.300;2023-04-01T00:26:14;8.40;;;5.03;;
63110;SDS011;49201;53.426;10.300;2023-04-01T00:28:44;8.57;;;4.60;;
63110;SDS011;49201;53.426;10.300;2023-04-01T00:31:13;8.40;;;4.93;;
63110;SDS011;49201;53.426;10.300;2023-04-01T00:33:39;9.07;;;4.90;;
63110;SDS011;49201;53.426;10.300;2023-04-01T00:38:39;11.47;;;4.90;;
63110;SDS011;49201;53.426;10.300;2023-04-01T00:41:06;12.73;;;6.00;;
63110;SDS011;49201;53.426;10.300;2023-04-01T00:43:32;9.70;;;5.53;;
63110;SDS011;49201;53.426;10.300;2023-04-01T00:45:58;15.27;;;5.30;;
63110;SDS011;49201;53.426;10.300;2023-04-01T00:48:28;12.47;;;4.63;;
63110;SDS011;49201;53.426;10.300;2023-04-01T00:51:01;8.10;;;5.07;;
63110;SDS011;49201;53.426;10.300;2023-04-01T00:53:31;9.57;;;4.60;;
63110;SDS011;49201;53.426;10.300;2023-04-01T00:56:04;8.03;;;4.90;;
63110;SDS011;49201;53.426;10.300;2023-04-01T00:58:36;8.30;;;5.00;;
63110;SDS011;49201;53.426;10.300;2023-04-01T01:01:05;7.70;;;5.23;;
63110;SDS011;49201;53.426;10.300;2023-04-01T01:03:33;8.27;;;4.97;;
63110;SDS011;49201;53.426;10.300;2023-04-01T01:08:51;8.67;;;4.93;;
63110;SDS011;49201;53.426;10.300;2023-04-01T01:11:31;13.00;;;5.57;;
63110;SDS011;49201;53.426;10.300;2023-04-01T01:14:10;9.53;;;5.33;;
63110;SDS011;49201;53.426;10.300;2023-04-01T01:16:48;8.20;;;5.07;;
63110;SDS011;49201;53.426;10.300;2023-04-01T01:27:40;8.70;;;5.27;;
63110;SDS011;49201;53.426;10.300;2023-04-01T01:35:56;10.10;;;5.03;;
63110;SDS011;49201;53.426;10.300;2023-04-01T01:38:26;10.07;;;4.70;;
63110;SDS011;49201;53.426;10.300;2023-04-01T01:40:58;11.70;;;5.20;;
63110;SDS011;49201;53.426;10.300;2023-04-01T01:43:26;8.97;;;4.87;;
63110;SDS011;49201;53.426;10.300;2023-04-01T01:45:57;8.80;;;5.10;;
63110;SDS011;49201;53.426;10.300;2023-04-01T01:48:26;11.00;;;4.80;;
63110;SDS011;49201;53.426;10.300;2023-04-01T01:50:54;6.87;;;4.93;;
63110;SDS011;49201;53.426;10.300;2023-04-01T01:53:20;6.83;;;4.67;;
63110;SDS011;49201;53.426;10.300;2023-04-01T01:55:46;8.97;;;4.40;;
63110;SDS011;49201;53.426;10.300;2023-04-01T01:58:17;9.37;;;4.53;;
63110;SDS011;49201;53.426;10.300;2023-04-01T02:00:46;8.47;;;4.90;;
63110;SDS011;49201;53.426;10.300;2023-04-01T02:03:17;9.47;;;4.60;;
63110;SDS011;49201;53.426;10.300;2023-04-01T02:05:46;11.00;;;4.97;;
63110;SDS011;49201;53.426;10.300;2023-04-01T02:08:14;9.67;;;4.13;;
63110;SDS011;49201;53.426;10.300;2023-04-01T02:10:46;13.17;;;4.60;;
63110;SDS011;49201;53.426;10.300;2023-04-01T02:13:31;10.03;;;4.30;;
63110;SDS011;49201;53.426;10.300;2023-04-01T02:16:05;7.33;;;4.50;;
63110;SDS011;49201;53.426;10.300;2023-04-01T02:18:36;10.27;;;4.67;;
63110;SDS011;49201;53.426;10.300;2023-04-01T02:21:04;8.07;;;4.80;;
63110;SDS011;49201;53.426;10.300;2023-04-01T02:23:35;10.77;;;4.43;;
63110;SDS011;49201;53.426;10.300;2023-04-01T02:26:02;10.53;;;4.60;;
63110;SDS011;49201;53.426;10.300;2023-04-01T02:28:30;10.60;;;4.70;;
63110;SDS011;49201;53.426;10.300;2023-04-01T02:30:58;11.10;;;5.00;;
63110;SDS011;49201;53.426;10.300;2023-04-01T02:33:25;5.87;;;3.97;;
63110;SDS011;49201;53.426;10.300;2023-04-01T02:35:53;10.37;;;4.73;;
63110;SDS011;49201;53.426;10.300;2023-04-01T02:38:18;11.37;;;5.27;;
63110;SDS011;49201;53.426;10.300;2023-04-01T02:40:48;8.43;;;4.20;;
63110;SDS011;49201;53.426;10.300;2023-04-01T02:43:15;9.20;;;4.50;;
63110;SDS011;49201;53.426;10.300;2023-04-01T02:45:42;11.47;;;4.90;;
63110;SDS011;49201;53.426;10.300;2023-04-01T02:48:08;8.83;;;4.27;;
63110;SDS011;49201;53.426;10.300;2023-04-01T02:50:33;9.73;;;4.33;;
63110;SDS011;49201;53.426;10.300;2023-04-01T02:52:59;8.23;;;4.33;;
63110;SDS011;49201;53.426;10.300;2023-04-01T02:55:25;12.53;;;4.90;;
63110;SDS011;49201;53.426;10.300;2023-04-01T02:57:50;7.00;;;4.70;;
63110;SDS011;49201;53.426;10.300;2023-04-01T03:00:16;6.07;;;4.17;;
63110;SDS011;49201;53.426;10.300;2023-04-01T03:02:42;7.90;;;4.50;;
63110;SDS011;49201;53.426;10.300;2023-04-01T03:05:09;9.63;;;4.70;;
63110;SDS011;49201;53.426;10.300;2023-04-01T03:07:35;7.07;;;4.37;;
63110;SDS011;49201;53.426;10.300;2023-04-01T03:10:00;8.73;;;5.30;;
63110;SDS011;49201;53.426;10.300;2023-04-01T03:12:26;9.60;;;4.80;;
63110;SDS011;49201;53.426;10.300;2023-04-01T03:14:52;8.17;;;4.50;;
63110;SDS011;49201;53.426;10.300;2023-04-01T03:17:17;10.93;;;4.53;;
63110;SDS011;49201;53.426;10.300;2023-04-01T03:19:44;9.67;;;4.60;;
63110;SDS011;49201;53.426;10.300;2023-04-01T03:22:10;9.27;;;4.93;;
63110;SDS011;49201;53.426;10.300;2023-04-01T03:24:36;7.43;;;4.67;;
63110;SDS011;49201;53.426;10.300;2023-04-01T03:27:01;11.40;;;4.40;;
63110;SDS011;49201;53.426;10.300;2023-04-01T03:29:27;10.83;;;5.37;;
63110;SDS011;49201;53.426;10.300;2023-04-01T03:31:53;9.07;;;4.97;;
63110;SDS011;49201;53.426;10.300;2023-04-01T03:34:18;8.80;;;5.27;;
63110;SDS011;49201;53.426;10.300;2023-04-01T03:36:44;9.50;;;4.87;;
63110;SDS011;49201;53.426;10.300;2023-04-01T03:39:09;7.00;;;4.90;;
63110;SDS011;49201;53.426;10.300;2023-04-01T03:41:40;8.43;;;4.90;;
63110;SDS011;49201;53.426;10.300;2023-04-01T03:44:05;8.80;;;5.07;;
63110;SDS011;49201;53.426;10.300;2023-04-01T03:46:31;10.10;;;5.13;;
63110;SDS011;49201;53.426;10.300;2023-04-01T03:48:56;11.40;;;5.43;;
63110;SDS011;49201;53.426;10.300;2023-04-01T03:51:22;9.20;;;4.57;;
63110;SDS011;49201;53.426;10.300;2023-04-01T03:53:48;8.33;;;4.83;;
63110;SDS011;49201;53.426;10.300;2023-04-01T03:56:15;7.93;;;5.00;;
63110;SDS011;49201;53.426;10.300;2023-04-01T03:58:40;8.13;;;5.10;;
63110;SDS011;49201;53.426;10.300;2023-04-01T04:01:17;8.50;;;4.40;;
63110;SDS011;49201;53.426;10.300;2023-04-01T04:03:47;11.57;;;5.10;;
63110;SDS011;49201;53.426;10.300;2023-04-01T04:06:15;9.93;;;4.70;;
63110;SDS011;49201;53.426;10.300;2023-04-01T04:08:42;8.23;;;5.40;;
63110;SDS011;49201;53.426;10.300;2023-04-01T04:11:09;8.23;;;4.70;;
63110;SDS011;49201;53.426;10.300;2023-04-01T04:13:38;8.50;;;4.93;;
63110;SDS011;49201;53.426;10.300;2023-04-01T04:16:04;8.47;;;4.90;;
63110;SDS011;49201;53.426;10.300;2023-04-01T04:18:30;9.97;;;5.00;;
63110;SDS011;49201;53.426;10.300;2023-04-01T04:20:56;10.57;;;5.23;;
63110;SDS011;49201;53.426;10.300;2023-04-01T04:23:22;9.40;;;4.67;;
63110;SDS011;49201;53.426;10.300;2023-04-01T04:25:54;8.17;;;5.10;;
63110;SDS011;49201;53.426;10.300;2023-04-01T04:28:26;10.47;;;5.23;;
63110;SDS011;49201;53.426;10.300;2023-04-01T04:30:54;5.83;;;4.43;;
63110;SDS011;49201;53.426;10.300;2023-04-01T04:33:20;7.30;;;5.27;;
63110;SDS011;49201;53.426;10.300;2023-04-01T04:35:50;6.87;;;4.70;;
63110;SDS011;49201;53.426;10.300;2023-04-01T04:38:16;11.27;;;4.67;;
63110;SDS011;49201;53.426;10.300;2023-04-01T04:40:42;9.57;;;4.70;;
63110;SDS011;49201;53.426;10.300;2023-04-01T04:43:13;8.20;;;5.00;;
63110;SDS011;49201;53.426;10.300;2023-04-01T04:45:41;8.07;;;4.93;;
63110;SDS011;49201;53.426;10.300;2023-04-01T04:48:08;8.23;;;5.00;;
63110;SDS011;49201;53.426;10.300;2023-04-01T04:50:34;7.93;;;5.53;;
63110;SDS011;49201;53.426;10.300;2023-04-01T04:53:00;9.43;;;5.83;;
63110;SDS011;49201;53.426;10.300;2023-04-01T04:55:26;9.07;;;5.50;;
63110;SDS011;49201;53.426;10.300;2023-04-01T04:58:12;9.00;;;5.13;;
63110;SDS011;49201;53.426;10.300;2023-04-01T05:00:40;8.20;;;5.00;;
63110;SDS011;49201;53.426;10.300;2023-04-01T05:03:11;11.93;;;5.03;;
63110;SDS011;49201;53.426;10.300;2023-04-01T05:05:37;8.10;;;5.47;;
63110;SDS011;49201;53.426;10.300;2023-04-01T05:08:03;11.37;;;5.73;;
63110;SDS011;49201;53.426;10.300;2023-04-01T05:10:29;10.40;;;5.47;;
63110;SDS011;49201;53.426;10.300;2023-04-01T05:12:56;10.43;;;5.33;;
63110;SDS011;49201;53.426;10.300;2023-04-01T05:15:23;9.27;;;5.20;;
63110;SDS011;49201;53.426;10.300;2023-04-01T05:17:48;9.27;;;5.10;;
63110;SDS011;49201;53.426;10.300;2023-04-01T05:20:14;11.93;;;6.00;;
63110;SDS011;49201;53.426;10.300;2023-04-01T05:22:40;8.90;;;5.30;;
63110;SDS011;49201;53.426;10.300;2023-04-01T05:25:06;9.77;;;5.43;;
63110;SDS011;49201;53.426;10.300;2023-04-01T05:27:32;10.57;;;6.40;;
63110;SDS011;49201;53.426;10.300;2023-04-01T05:29:59;9.73;;;6.00;;
63110;SDS011;49201;53.426;10.300;2023-04-01T05:32:40;12.63;;;6.07;;
63110;SDS011;49201;53.426;10.300;2023-04-01T05:35:06;10.00;;;5.83;;
63110;SDS011;49201;53.426;10.300;2023-04-01T05:37:33;10.27;;;5.23;;
63110;SDS011;49201;53.426;10.300;2023-04-01T05:39:59;9.63;;;5.90;;
63110;SDS011;49201;53.426;10.300;2023-04-01T05:42:25;11.07;;;6.23;;
63110;SDS011;49201;53.426;10.300;2023-04-01T05:44:51;11.87;;;6.00;;
63110;SDS011;49201;53.426;10.300;2023-04-01T05:47:35;8.93;;;5.60;;
63110;SDS011;49201;53.426;10.300;2023-04-01T05:50:00;7.83;;;5.77;;
63110;SDS011;49201;53.426;10.300;2023-04-01T05:52:26;9.37;;;6.10;;
63110;SDS011;49201;53.426;10.300;2023-04-01T05:54:51;8.30;;;5.90;;
63110;SDS011;49201;53.426;10.300;2023-04-01T05:57:17;7.83;;;5.50;;
63110;SDS011;49201;53.426;10.300;2023-04-01T05:59:42;5.67;;;3.40;;
63110;SDS011;49201;53.426;10.300;2023-04-01T06:02:09;3.00;;;1.57;;
63110;SDS011;49201;53.426;10.300;2023-04-01T06:04:37;1.50;;;1.37;;
63110;SDS011;49201;53.426;10.300;2023-04-01T06:07:13;1.83;;;1.20;;
63110;SDS011;49201;53.426;10.300;2023-04-01T06:09:40;1.60;;;1.50;;
63110;SDS011;49201;53.426;10.300;2023-04-01T06:23:14;1.70;;;1.60;;
63110;SDS011;49201;53.426;10.300;2023-04-01T06:25:57;1.50;;;1.40;;
63110;SDS011;49201;53.426;10.300;2023-04-01T06:39:18;1.77;;;1.67;;
63110;SDS011;49201;53.426;10.300;2023-04-01T06:51:00;1.70;;;1.60;;
63110;SDS011;49201;53.426;10.300;2023-04-01T06:56:36;2.80;;;1.83;;
63110;SDS011;49201;53.426;10.300;2023-04-01T06:59:17;2.33;;;1.93;;
63110;SDS011;49201;53.426;10.300;2023-04-01T07:01:46;2.10;;;1.70;;
63110;SDS011;49201;53.426;10.300;2023-04-01T07:04:31;1.60;;;1.30;;
63110;SDS011;49201;53.426;10.300;2023-04-01T07:07:02;1.30;;;1.20;;
63110;SDS011;49201;53.426;10.300;2023-04-01T07:09:43;1.67;;;1.10;;
63110;SDS011;49201;53.426;10.300;2023-04-01T07:15:25;1.30;;;1.20;;
63110;SDS011;49201;53.426;10.300;2023-04-01T07:17:57;1.37;;;1.03;;
63110;SDS011;49201;53.426;10.300;2023-04-01T07:20:32;1.93;;;1.23;;
63110;SDS011;49201;53.426;10.300;2023-04-01T07:23:03;1.30;;;1.20;;
63110;SDS011;49201;53.426;10.300;2023-04-01T07:26:00;1.40;;;1.30;;
63110;SDS011;49201;53.426;10.300;2023-04-01T07:28:32;1.30;;;1.00;;
63110;SDS011;49201;53.426;10.300;2023-04-01T07:50:13;0.80;;;0.80;;
63110;SDS011;49201;53.426;10.300;2023-04-01T07:55:39;3.77;;;1.40;;
63110;SDS011;49201;53.426;10.300;2023-04-01T08:00:49;1.10;;;0.80;;
63110;SDS011;49201;53.426;10.300;2023-04-01T08:03:33;0.80;;;0.80;;
63110;SDS011;49201;53.426;10.300;2023-04-01T08:08:55;1.10;;;1.00;;
63110;SDS011;49201;53.426;10.300;2023-04-01T08:12:21;2.50;;;1.20;;
63110;SDS011;49201;53.426;10.300;2023-04-01T08:19:00;1.10;;;1.07;;
63110;SDS011;49201;53.426;10.300;2023-04-01T08:21:40;1.30;;;1.17;;
63110;SDS011;49201;53.426;10.300;2023-04-01T08:24:29;1.47;;;1.20;;
63110;SDS011;49201;53.426;10.300;2023-04-01T08:27:26;1.90;;;1.00;;
63110;SDS011;49201;53.426;10.300;2023-04-01T08:30:03;1.50;;;1.40;;
63110;SDS011;49201;53.426;10.300;2023-04-01T08:32:36;2.73;;;1.40;;
63110;SDS011;49201;53.426;10.300;2023-04-01T08:37:39;1.20;;;1.10;;
63110;SDS011;49201;53.426;10.300;2023-04-01T08:43:02;1.40;;;1.30;;
63110;SDS011;49201;53.426;10.300;2023-04-01T08:51:09;1.87;;;1.43;;
63110;SDS011;49201;53.426;10.300;2023-04-01T08:53:58;1.23;;;1.13;;
63110;SDS011;49201;53.426;10.300;2023-04-01T08:56:53;1.50;;;1.40;;
63110;SDS011;49201;53.426;10.300;2023-04-01T09:30:59;1.20;;;1.10;;
63110;SDS011;49201;53.426;10.300;2023-04-01T09:37:13;1.57;;;1.00;;
63110;SDS011;49201;53.426;10.300;2023-04-01T09:45:53;0.97;;;0.90;;
63110;SDS011;49201;53.426;10.300;2023-04-01T09:49:05;1.20;;;1.10;;
63110;SDS011;49201;53.426;10.300;2023-04-01T09:51:54;0.70;;;0.70;;
63110;SDS011;49201;53.426;10.300;2023-04-01T10:11:52;2.33;;;0.97;;
63110;SDS011;49201;53.426;10.300;2023-04-01T10:17:21;1.23;;;0.87;;
63110;SDS011;49201;53.426;10.300;2023-04-01T10:36:56;1.27;;;0.90;;
63110;SDS011;49201;53.426;10.300;2023-04-01T10:39:34;1.17;;;0.87;;
63110;SDS011;49201;53.426;10.300;2023-04-01T10:48:45;0.80;;;0.80;;
63110;SDS011;49201;53.426;10.300;2023-04-01T10:51:17;1.13;;;0.70;;
63110;SDS011;49201;53.426;10.300;2023-04-01T11:17:27;0.50;;;0.50;;
63110;SDS011;49201;53.426;10.300;2023-04-01T11:23:01;0.97;;;0.70;;
63110;SDS011;49201;53.426;10.300;2023-04-01T11:34:13;1.17;;;0.90;;
63110;SDS011;49201;53.426;10.300;2023-04-01T11:36:56;1.47;;;1.10;;
63110;SDS011;49201;53.426;10.300;2023-04-01T11:39:37;1.13;;;1.03;;
63110;SDS011;49201;53.426;10.300;2023-04-01T11:43:08;1.30;;;1.20;;
63110;SDS011;49201;53.426;10.300;2023-04-01T12:00:02;1.93;;;1.53;;
63110;SDS011;49201;53.426;10.300;2023-04-01T12:06:01;2.30;;;1.40;;
63110;SDS011;49201;53.426;10.300;2023-04-01T12:08:46;4.63;;;1.70;;
63110;SDS011;49201;53.426;10.300;2023-04-01T12:17:09;3.07;;;2.63;;
63110;SDS011;49201;53.426;10.300;2023-04-01T12:30:52;4.70;;;3.40;;
63110;SDS011;49201;53.426;10.300;2023-04-01T12:36:46;5.57;;;3.43;;
63110;SDS011;49201;53.426;10.300;2023-04-01T12:39:44;4.70;;;2.90;;
63110;SDS011;49201;53.426;10.300;2023-04-01T12:43:17;4.43;;;3.40;;
63110;SDS011;49201;53.426;10.300;2023-04-01T12:45:35;3.30;;;2.83;;
63110;SDS011;49201;53.426;10.300;2023-04-01T12:57:26;5.57;;;3.50;;
63110;SDS011;49201;53.426;10.300;2023-04-01T13:14:36;5.20;;;4.03;;
63110;SDS011;49201;53.426;10.300;2023-04-01T13:17:04;5.43;;;3.27;;
63110;SDS011;49201;53.426;10.300;2023-04-01T13:19:54;5.33;;;3.00;;
63110;SDS011;49201;53.426;10.300;2023-04-01T13:27:44;4.63;;;2.70;;
63110;SDS011;49201;53.426;10.300;2023-04-01T13:47:24;3.60;;;2.60;;
63110;SDS011;49201;53.426;10.300;2023-04-01T13:55:40;4.23;;;2.50;;
63110;SDS011;49201;53.426;10.300;2023-04-01T14:12:44;3.13;;;2.03;;
63110;SDS011;49201;53.426;10.300;2023-04-01T14:15:37;3.33;;;2.43;;
63110;SDS011;49201;53.426;10.300;2023-04-01T14:21:03;3.10;;;2.60;;
63110;SDS011;49201;53.426;10.300;2023-04-01T14:32:20;3.43;;;2.77;;
63110;SDS011;49201;53.426;10.300;2023-04-01T14:34:38;6.37;;;3.00;;
63110;SDS011;49201;53.426;10.300;2023-04-01T14:37:08;3.70;;;2.90;;
63110;SDS011;49201;53.426;10.300;2023-04-01T14:50:51;5.10;;;3.30;;
63110;SDS011;49201;53.426;10.300;2023-04-01T14:55:58;5.63;;;4.40;;
63110;SDS011;49201;53.426;10.300;2023-04-01T14:58:31;8.33;;;4.17;;
63110;SDS011;49201;53.426;10.300;2023-04-01T15:11:52;6.93;;;3.67;;
63110;SDS011;49201;53.426;10.300;2023-04-01T15:20:29;6.27;;;3.50;;
63110;SDS011;49201;53.426;10.300;2023-04-01T15:28:56;5.60;;;4.03;;
63110;SDS011;49201;53.426;10.300;2023-04-01T16:11:06;6.43;;;4.30;;
63110;SDS011;49201;53.426;10.300;2023-04-01T16:13:35;7.07;;;4.50;;
63110;SDS011;49201;53.426;10.300;2023-04-01T16:24:15;7.00;;;3.60;;
63110;SDS011;49201;53.426;10.300;2023-04-01T16:29:27;7.73;;;3.97;;
63110;SDS011;49201;53.426;10.300;2023-04-01T16:35:10;8.30;;;4.07;;
63110;SDS011;49201;53.426;10.300;2023-04-01T16:37:59;7.27;;;4.10;;
63110;SDS011;49201;53.426;10.300;2023-04-01T16:40:42;6.83;;;4.43;;
63110;SDS011;49201;53.426;10.300;2023-04-01T16:43:23;8.97;;;3.80;;
63110;SDS011;49201;53.426;10.300;2023-04-01T16:51:26;6.77;;;4.00;;
63110;SDS011;49201;53.426;10.300;2023-04-01T16:54:06;9.67;;;4.30;;
63110;SDS011;49201;53.426;10.300;2023-04-01T16:56:47;10.40;;;4.43;;
63110;SDS011;49201;53.426;10.300;2023-04-01T17:04:37;7.90;;;4.27;;
63110;SDS011;49201;53.426;10.300;2023-04-01T17:20:59;7.43;;;4.37;;
63110;SDS011;49201;53.426;10.300;2023-04-01T17:31:06;7.83;;;4.10;;
63110;SDS011;49201;53.426;10.300;2023-04-01T17:34:06;6.37;;;3.97;;
63110;SDS011;49201;53.426;10.300;2023-04-01T17:37:11;6.97;;;4.93;;
63110;SDS011;49201;53.426;10.300;2023-04-01T17:54:21;6.13;;;4.37;;
63110;SDS011;49201;53.426;10.300;2023-04-01T17:56:32;9.13;;;4.57;;
63110;SDS011;49201;53.426;10.300;2023-04-01T18:08:31;8.83;;;4.23;;
63110;SDS011;49201;53.426;10.300;2023-04-01T18:11:09;8.47;;;4.63;;
63110;SDS011;49201;53.426;10.300;2023-04-01T18:24:41;6.70;;;4.87;;
63110;SDS011;49201;53.426;10.300;2023-04-01T18:27:18;6.27;;;4.60;;
63110;SDS011;49201;53.426;10.300;2023-04-01T18:30:07;6.90;;;4.33;;
63110;SDS011;49201;53.426;10.300;2023-04-01T18:32:54;8.47;;;4.97;;
63110;SDS011;49201;53.426;10.300;2023-04-01T18:35:31;7.73;;;4.20;;
63110;SDS011;49201;53.426;10.300;2023-04-01T18:40:35;7.07;;;4.10;;
63110;SDS011;49201;53.426;10.300;2023-04-01T19:06:35;6.70;;;3.87;;
63110;SDS011;49201;53.426;10.300;2023-04-01T19:09:20;9.07;;;4.30;;
63110;SDS011;49201;53.426;10.300;2023-04-01T19:17:32;4.83;;;3.43;;
63110;SDS011;49201;53.426;10.300;2023-04-01T19:20:14;8.77;;;3.90;;
63110;SDS011;49201;53.426;10.300;2023-04-01T19:25:55;8.20;;;3.77;;
63110;SDS011;49201;53.426;10.300;2023-04-01T19:41:52;7.73;;;3.10;;
63110;SDS011;49201;53.426;10.300;2023-04-01T19:52:42;5.57;;;2.80;;
63110;SDS011;49201;53.426;10.300;2023-04-01T19:58:20;4.97;;;2.80;;
63110;SDS011;49201;53.426;10.300;2023-04-01T20:00:51;7.67;;;3.10;;
63110;SDS011;49201;53.426;10.300;2023-04-01T20:03:30;6.37;;;2.97;;
63110;SDS011;49201;53.426;10.300;2023-04-01T20:06:11;5.10;;;2.60;;
63110;SDS011;49201;53.426;10.300;2023-04-01T20:11:27;7.80;;;3.07;;
63110;SDS011;49201;53.426;10.300;2023-04-01T20:14:03;4.40;;;2.80;;
63110;SDS011;49201;53.426;10.300;2023-04-01T20:16:44;6.90;;;2.97;;
63110;SDS011;49201;53.426;10.300;2023-04-01T20:19:28;5.70;;;2.80;;
63110;SDS011;49201;53.426;10.300;2023-04-01T20:21:59;5.37;;;3.13;;
63110;SDS011;49201;53.426;10.300;2023-04-01T20:24:41;8.73;;;3.40;;
63110;SDS011;49201;53.426;10.300;2023-04-01T20:27:10;6.47;;;3.03;;
63110;SDS011;49201;53.426;10.300;2023-04-01T20:42:22;8.63;;;3.83;;
63110;SDS011;49201;53.426;10.300;2023-04-01T20:53:16;8.37;;;3.17;;
63110;SDS011;49201;53.426;10.300;2023-04-01T21:06:51;8.13;;;2.73;;
63110;SDS011;49201;53.426;10.300;2023-04-01T21:20:24;6.17;;;2.47;;
63110;SDS011;49201;53.426;10.300;2023-04-01T21:28:54;5.37;;;1.97;;
63110;SDS011;49201;53.426;10.300;2023-04-01T21:48:36;6.60;;;1.40;;
63110;SDS011;49201;53.426;10.300;2023-04-01T21:57:03;3.43;;;1.47;;
63110;SDS011;49201;53.426;10.300;2023-04-01T22:08:08;8.53;;;3.00;;
63110;SDS011;49201;53.426;10.300;2023-04-01T22:10:43;8.77;;;2.00;;
63110;SDS011;49201;53.426;10.300;2023-04-01T22:13:26;7.07;;;2.20;;
63110;SDS011;49201;53.426;10.300;2023-04-01T22:18:39;5.00;;;1.80;;
63110;SDS011;49201;53.426;10.300;2023-04-01T22:21:13;4.83;;;1.80;;
63110;SDS011;49201;53.426;10.300;2023-04-01T22:26:19;4.23;;;1.60;;
63110;SDS011;49201;53.426;10.300;2023-04-01T22:29:01;3.93;;;1.70;;
63110;SDS011;49201;53.426;10.300;2023-04-01T22:37:22;5.67;;;1.93;;
63110;SDS011;49201;53.426;10.300;2023-04-01T22:40:18;3.67;;;1.80;;
63110;SDS011;49201;53.426;10.300;2023-04-01T22:48:19;4.07;;;1.63;;
63110;SDS011;49201;53.426;10.300;2023-04-01T22:56:18;4.60;;;1.53;;
63110;SDS011;49201;53.426;10.300;2023-04-01T22:59:00;4.03;;;1.53;;
63110;SDS011;49201;53.426;10.300;2023-04-01T23:01:33;7.20;;;2.33;;
63110;SDS011;49201;53.426;10.300;2023-04-01T23:04:04;5.40;;;1.97;;
63110;SDS011;49201;53.426;10.300;2023-04-01T23:06:41;5.57;;;1.77;;
63110;SDS011;49201;53.426;10.300;2023-04-01T23:09:16;7.43;;;1.77;;
63110;SDS011;49201;53.426;10.300;2023-04-01T23:27:39;4.57;;;1.87;;
63110;SDS011;49201;53.426;10.300;2023-04-01T23:35:34;3.83;;;1.70;;
63110;SDS011;49201;53.426;10.300;2023-04-01T23:38:12;5.90;;;1.83;;
63110;SDS011;49201;53.426;10.300;2023-04-01T23:40:37;6.00;;;1.80;;
63110;SDS011;49201;53.426;10.300;2023-04-01T23:43:12;6.67;;;1.90;;
63110;SDS011;49201;53.426;10.300;2023-04-01T23:45:56;6.00;;;1.70;;
63110;SDS011;49201;53.426;10.300;2023-04-01T23:48:35;6.53;;;1.97;;
63110;SDS011;49201;53.426;10.300;2023-04-01T23:51:03;6.07;;;1.70;;
63110;SDS011;49201;53.426;10.300;2023-04-01T23:53:38;6.00;;;1.60;;
63110;SDS011;49201;53.426;10.300;2023-04-01T23:56:09;5.27;;;1.40;;
